TimeEDT,TemperatureF,Dew PointF,Humidity,Sea Level PressureIn,VisibilityMPH,Wind Direction,Wind SpeedMPH,Gust SpeedMPH,PrecipitationIn,Events,Conditions,WindDirDegrees,DateUTC
12:53 AM,64.9,61.0,87,29.79,10.0,Calm,Calm,-,N/A,,Partly Cloudy,0,2013-07-23 04:53:00
1:53 AM,66.0,59.0,78,29.78,10.0,Calm,Calm,-,N/A,,Clear,0,2013-07-23 05:53:00
2:53 AM,66.0,59.0,78,29.75,10.0,Calm,Calm,-,0.00,Rain,Light Rain,0,2013-07-23 06:53:00
3:53 AM,64.0,59.0,84,29.73,10.0,Calm,Calm,-,0.00,,Scattered Clouds,0,2013-07-23 07:53:00
4:53 AM,64.0,59.0,84,29.71,10.0,Calm,Calm,-,N/A,,Partly Cloudy,0,2013-07-23 08:53:00
5:53 AM,63.0,60.1,90,29.71,10.0,Calm,Calm,-,N/A,,Clear,0,2013-07-23 09:53:00
6:53 AM,64.9,61.0,87,29.70,10.0,Calm,Calm,-,N/A,,Overcast,0,2013-07-23 10:53:00
7:53 AM,66.9,62.1,84,29.69,10.0,Calm,Calm,-,N/A,,Clear,0,2013-07-23 11:53:00
8:53 AM,70.0,64.9,84,29.67,10.0,Calm,Calm,-,N/A,,Clear,0,2013-07-23 12:53:00
9:53 AM,73.9,66.9,79,29.66,10.0,Calm,Calm,-,N/A,,Mostly Cloudy,0,2013-07-23 13:53:00
10:53 AM,78.1,68.0,71,29.65,10.0,SSW,6.9,-,N/A,,Mostly Cloudy,210,2013-07-23 14:53:00
11:53 AM,80.1,64.9,60,29.63,10.0,Variable,4.6,-,N/A,,Partly Cloudy,0,2013-07-23 15:53:00
12:53 PM,82.0,66.9,60,29.61,10.0,SSW,9.2,16.1,N/A,,Scattered Clouds,200,2013-07-23 16:53:00
1:53 PM,82.9,68.0,60,29.58,10.0,Variable,5.8,-,N/A,,Scattered Clouds,0,2013-07-23 17:53:00
2:53 PM,82.9,68.0,60,29.56,10.0,WSW,8.1,-,N/A,,Overcast,250,2013-07-23 18:53:00
3:53 PM,82.9,66.9,58,29.55,10.0,WSW,8.1,19.6,N/A,,Scattered Clouds,250,2013-07-23 19:53:00
4:53 PM,82.9,66.9,58,29.54,10.0,SW,11.5,-,N/A,,Clear,230,2013-07-23 20:53:00
5:53 PM,81.0,64.9,58,29.54,10.0,SSW,12.7,-,N/A,,Clear,210,2013-07-23 21:53:00
6:53 PM,79.0,60.1,52,29.53,10.0,SW,13.8,19.6,N/A,,Clear,230,2013-07-23 22:53:00
7:53 PM,77.0,63.0,62,29.53,10.0,SW,8.1,-,N/A,,Partly Cloudy,220,2013-07-23 23:53:00
8:53 PM,73.9,62.1,66,29.55,10.0,SW,8.1,-,N/A,,Partly Cloudy,230,2013-07-24 00:53:00
9:53 PM,73.0,63.0,71,29.55,10.0,SW,6.9,-,N/A,,Partly Cloudy,230,2013-07-24 01:53:00
10:53 PM,73.0,63.0,71,29.55,10.0,SW,9.2,-,N/A,,Overcast,230,2013-07-24 02:53:00
11:53 PM,72.0,64.0,76,29.55,10.0,WSW,8.1,-,0.02,,Overcast,240,2013-07-24 03:53:00